This is the latest recevied weather packets stored in our database for station/object 2E1HJE-10. If no packets are shown the sender has not sent any weather packets the latest 10 day(s).
| Time | Temp. | Humidity | Pressure | Rain* | Wind** | Luminosity | Snow |
|---|---|---|---|---|---|---|---|
| 1777787907 | 13.33° C | 94% | 1009.5 hPa | 0.25 mm | - | - | - |
| 1777787307 | 13.33° C | 94% | 1009.5 hPa | 0.25 mm | - | - | - |
| 1777786707 | 13.33° C | 94% | 1009.5 hPa | 0.25 mm | - | - | - |
| 1777786107 | 13.33° C | 94% | 1009.5 hPa | 0.25 mm | - | - | - |
| 1777785507 | 13.33° C | 93% | 1009.6 hPa | 0 mm | - | - | - |
| 1777784907 | 13.33° C | 93% | 1009.6 hPa | 0 mm | - | - | - |
| 1777784307 | 13.33° C | 95% | 1009.7 hPa | 0 mm | - | - | - |
| 1777783707 | 13.33° C | 95% | 1009.7 hPa | 0 mm | - | - | - |
| 1777783107 | 13.33° C | 96% | 1009.3 hPa | 0.51 mm | - | - | - |
| 1777782507 | 13.33° C | 96% | 1009.3 hPa | 0.51 mm | - | - | - |
| 1777781907 | 13.33° C | 96% | 1009.3 hPa | 0.51 mm | - | - | - |
| 1777781307 | 13.33° C | 96% | 1009.3 hPa | 0.51 mm | - | - | - |
| 1777780707 | 13.33° C | 93% | 1009.6 hPa | 0 mm | - | - | - |
| 1777780107 | 13.33° C | 93% | 1009.6 hPa | 0 mm | - | - | - |
| 1777779507 | 13.33° C | 93% | 1009.6 hPa | 0 mm | - | - | - |
| 1777778907 | 13.89° C | 93% | 1009.6 hPa | 0 mm | - | - | - |
| 1777778307 | 13.89° C | 94% | 1009.6 hPa | 0 mm | - | - | - |
| 1777777707 | 13.89° C | 94% | 1009.6 hPa | 0 mm | - | - | - |
| 1777777107 | 13.89° C | 92% | 1010 hPa | 0 mm | - | - | - |
| 1777776507 | 13.89° C | 92% | 1010 hPa | 0 mm | - | - | - |
| 1777775907 | 13.89° C | 92% | 1010 hPa | 0 mm | - | - | - |
| 1777775307 | 13.89° C | 92% | 1010 hPa | 0 mm | - | - | - |
| 1777774708 | 13.89° C | 91% | 1009.9 hPa | 0 mm | - | - | - |
| 1777774107 | 13.89° C | 90% | 1010.8 hPa | 0 mm | - | - | - |
| 1777773507 | 13.89° C | 90% | 1010.8 hPa | 0 mm | - | - | - |
* Rain latest hour (hover to see other rain measurements)
** Current wind speed in m/s (hover to see current wind gust speed)